createdAt,value
2022-09-25T00:00:44.928Z,93526.38
2022-09-25T00:03:13.445Z,93524.31
2022-09-25T00:05:42.075Z,93516.75
2022-09-25T00:08:09.936Z,93519.88
2022-09-25T00:10:51.174Z,93521.50
2022-09-25T00:13:19.922Z,93517.25
2022-09-25T00:15:55.089Z,93518.94
2022-09-25T00:18:42.306Z,93522.56
2022-09-25T00:21:14.550Z,93514.91
2022-09-25T00:23:44.760Z,93517.81
2022-09-25T00:26:13.901Z,93512.75
2022-09-25T00:28:41.809Z,93511.03
2022-09-25T00:31:09.800Z,93516.22
2022-09-25T00:33:36.799Z,93505.06
2022-09-25T00:36:09.008Z,93504.66
2022-09-25T00:38:37.186Z,93502.34
2022-09-25T00:41:05.842Z,93498.78
2022-09-25T00:43:37.790Z,93492.88
2022-09-25T00:46:11.118Z,93495.94
2022-09-25T00:48:44.719Z,93497.72
2022-09-25T00:51:11.668Z,93490.88
2022-09-25T00:53:40.938Z,93482.72
2022-09-25T00:56:12.909Z,93487.59
2022-09-25T00:58:41.178Z,93484.03
2022-09-25T01:01:09.231Z,93483.59
2022-09-25T01:03:36.850Z,93483.91
2022-09-25T01:06:04.068Z,93483.38
2022-09-25T01:08:32.345Z,93481.66
2022-09-25T01:10:59.071Z,93482.81
2022-09-25T01:13:26.429Z,93472.63
2022-09-25T01:15:58.944Z,93482.47
2022-09-25T01:18:31.573Z,93483.88
2022-09-25T01:21:19.603Z,93484.38
2022-09-25T01:24:21.160Z,93486.75
2022-09-25T01:26:56.493Z,93482.59
2022-09-25T01:29:32.103Z,93481.13
2022-09-25T01:32:22.881Z,93488.97
2022-09-25T01:34:59.550Z,93480.94
2022-09-25T01:38:02.625Z,93479.84
2022-09-25T01:40:46.581Z,93484.56
2022-09-25T01:43:19.602Z,93490.78
2022-09-25T01:46:09.925Z,93489.13
2022-09-25T01:48:39.427Z,93482.06
2022-09-25T01:51:13.828Z,93482.22
2022-09-25T01:53:48.013Z,93478.03
2022-09-25T01:56:23.200Z,93473.88
2022-09-25T01:58:58.770Z,93471.59
2022-09-25T02:01:36.134Z,93465.38
2022-09-25T02:04:13.521Z,93466.41
2022-09-25T02:06:43.790Z,93460.16
2022-09-25T02:09:15.529Z,93459.81
2022-09-25T02:11:48.142Z,93456.69
2022-09-25T02:14:27.059Z,93455.25
2022-09-25T02:16:58.260Z,93466.16
2022-09-25T02:19:44.800Z,93460.69
2022-09-25T02:22:22.358Z,93454.75
2022-09-25T02:24:59.132Z,93460.16
2022-09-25T02:27:28.625Z,93461.75
2022-09-25T02:29:56.438Z,93455.22
2022-09-25T02:32:28.914Z,93452.81
2022-09-25T02:34:58.035Z,93458.28
2022-09-25T02:37:24.658Z,93445.66
2022-09-25T02:39:55.759Z,93448.38
2022-09-25T02:42:44.945Z,93445.47
2022-09-25T02:45:17.585Z,93445.59
2022-09-25T02:48:11.464Z,93444.66
2022-09-25T02:50:43.990Z,93446.16
2022-09-25T02:53:37.665Z,93439.19
2022-09-25T02:56:13.608Z,93439.75
2022-09-25T02:58:46.555Z,93441.00
2022-09-25T03:01:16.735Z,93439.81
2022-09-25T03:03:47.066Z,93438.91
2022-09-25T03:06:13.865Z,93440.44
2022-09-25T03:08:46.399Z,93438.31
2022-09-25T03:11:15.998Z,93437.38
2022-09-25T03:13:43.644Z,93434.88
2022-09-25T03:16:21.472Z,93445.31
2022-09-25T03:18:48.167Z,93450.94
2022-09-25T03:21:15.174Z,93455.56
2022-09-25T03:23:41.839Z,93452.06
2022-09-25T03:26:08.433Z,93452.09
2022-09-25T03:28:35.152Z,93452.22
2022-09-25T03:31:07.979Z,93453.22
2022-09-25T03:33:40.109Z,93450.13
2022-09-25T03:36:09.464Z,93443.78
2022-09-25T03:38:36.568Z,93451.97
2022-09-25T03:41:09.378Z,93446.84
2022-09-25T03:43:37.561Z,93446.56
2022-09-25T03:46:05.528Z,93443.66
2022-09-25T03:48:32.725Z,93451.78
2022-09-25T03:51:00.839Z,93443.38
2022-09-25T03:53:31.599Z,93452.16
2022-09-25T03:56:05.165Z,93450.47
2022-09-25T03:58:32.309Z,93460.91
2022-09-25T04:00:59.481Z,93460.53
2022-09-25T04:03:30.528Z,93452.59
2022-09-25T04:05:59.051Z,93463.38
2022-09-25T04:08:26.960Z,93456.22
2022-09-25T04:11:01.153Z,93458.16
2022-09-25T04:13:34.510Z,93457.31
2022-09-25T04:16:03.661Z,93462.88
2022-09-25T04:18:31.541Z,93455.22
2022-09-25T04:21:03.389Z,93445.44
2022-09-25T04:23:30.466Z,93450.22
2022-09-25T04:25:57.728Z,93448.94
2022-09-25T04:28:25.047Z,93449.22
2022-09-25T04:30:52.026Z,93450.00
2022-09-25T04:33:37.603Z,93450.00
2022-09-25T04:36:05.562Z,93453.81
2022-09-25T04:38:32.536Z,93451.41
2022-09-25T04:41:00.170Z,93455.75
2022-09-25T04:43:29.362Z,93451.63
2022-09-25T04:45:56.191Z,93467.03
2022-09-25T04:48:22.889Z,93458.66
2022-09-25T04:50:51.556Z,93464.00
2022-09-25T04:53:18.258Z,93462.09
2022-09-25T04:55:46.239Z,93460.84
2022-09-25T04:58:12.894Z,93460.38
2022-09-25T05:00:40.905Z,93458.28
2022-09-25T05:03:07.697Z,93464.06
2022-09-25T05:05:35.192Z,93465.16
2022-09-25T05:08:03.155Z,93466.28
2022-09-25T05:10:32.197Z,93464.13
2022-09-25T05:13:03.985Z,93472.03
2022-09-25T05:15:33.093Z,93462.34
2022-09-25T05:18:12.455Z,93473.81
2022-09-25T05:20:39.116Z,93471.38
2022-09-25T05:23:05.864Z,93474.75
2022-09-25T05:25:32.470Z,93467.31
2022-09-25T05:28:00.763Z,93468.16
2022-09-25T05:30:30.455Z,93461.94
2022-09-25T05:33:00.914Z,93461.47
2022-09-25T05:35:31.205Z,93456.66
2022-09-25T05:37:58.640Z,93463.25
2022-09-25T05:40:25.433Z,93463.63
2022-09-25T05:42:52.950Z,93465.09
2022-09-25T05:45:21.546Z,93466.53
2022-09-25T05:47:48.486Z,93468.31
2022-09-25T05:50:17.374Z,93470.84
2022-09-25T05:52:44.196Z,93463.22
2022-09-25T05:55:11.157Z,93466.28
2022-09-25T05:57:38.523Z,93468.09
2022-09-25T06:00:11.488Z,93462.88
2022-09-25T06:02:38.151Z,93460.72
2022-09-25T06:05:05.366Z,93456.06
2022-09-25T06:07:31.982Z,93461.94
2022-09-25T06:09:58.604Z,93464.84
2022-09-25T06:12:25.236Z,93473.09
2022-09-25T06:14:52.592Z,93476.69
2022-09-25T06:17:20.219Z,93481.00
2022-09-25T06:19:47.004Z,93488.22
2022-09-25T06:22:14.073Z,93486.19
2022-09-25T06:24:41.213Z,93483.25
2022-09-25T06:27:08.260Z,93480.66
2022-09-25T06:29:35.493Z,93486.41
2022-09-25T06:32:03.251Z,93484.41
2022-09-25T06:34:29.948Z,93480.19
2022-09-25T06:36:56.540Z,93479.38
2022-09-25T06:39:23.165Z,93473.91
2022-09-25T06:41:52.878Z,93473.78
2022-09-25T06:44:20.680Z,93474.94
2022-09-25T06:46:51.031Z,93483.75
2022-09-25T06:49:17.747Z,93483.81
2022-09-25T06:51:44.383Z,93487.59
2022-09-25T06:54:11.114Z,93490.31
2022-09-25T06:56:37.833Z,93489.22
2022-09-25T06:59:04.998Z,93491.59
2022-09-25T07:01:31.757Z,93491.25
2022-09-25T07:03:58.527Z,93487.75
2022-09-25T07:06:31.250Z,93489.16
2022-09-25T07:08:57.918Z,93489.53
2022-09-25T07:11:26.920Z,93485.13
2022-09-25T07:13:55.164Z,93490.16
2022-09-25T07:16:25.223Z,93483.44
2022-09-25T07:18:57.125Z,93479.91
2022-09-25T07:21:25.084Z,93482.63
2022-09-25T07:23:52.659Z,93480.56
2022-09-25T07:26:22.949Z,93479.22
2022-09-25T07:29:03.876Z,93473.22
2022-09-25T07:31:32.976Z,93476.81
2022-09-25T07:34:02.990Z,93480.97
2022-09-25T07:36:29.848Z,93479.34
2022-09-25T07:38:56.453Z,93477.44
2022-09-25T07:41:23.803Z,93479.97
2022-09-25T07:46:45.976Z,93472.41
2022-09-25T07:49:13.838Z,93464.41
2022-09-25T07:51:40.613Z,93471.19
2022-09-25T07:54:07.935Z,93476.31
2022-09-25T07:56:34.662Z,93469.19
2022-09-25T07:59:01.431Z,93476.09
2022-09-25T08:01:28.157Z,93476.69
2022-09-25T08:03:54.901Z,93470.94
2022-09-25T08:06:21.639Z,93476.13
2022-09-25T08:08:48.267Z,93472.81
2022-09-25T08:11:17.104Z,93472.41
2022-09-25T08:13:45.068Z,93473.03
2022-09-25T08:16:16.965Z,93469.59
2022-09-25T08:18:46.310Z,93472.06
2022-09-25T08:21:15.069Z,93482.81
2022-09-25T08:23:47.643Z,93483.59
2022-09-25T08:26:16.101Z,93479.69
2022-09-25T08:28:42.970Z,93483.25
2022-09-25T08:31:10.143Z,93489.34
2022-09-25T08:33:37.374Z,93480.66
2022-09-25T08:36:05.753Z,93478.34
2022-09-25T08:38:33.240Z,93480.91
2022-09-25T08:41:11.325Z,93481.16
2022-09-25T08:43:43.587Z,93478.75
2022-09-25T08:46:57.314Z,93480.69
2022-09-25T08:49:28.428Z,93474.38
2022-09-25T08:52:01.175Z,93471.94
2022-09-25T08:54:31.208Z,93473.34
2022-09-25T08:57:16.322Z,93473.78
2022-09-25T08:59:51.301Z,93465.97
2022-09-25T09:02:26.416Z,93470.00
2022-09-25T09:04:56.414Z,93474.63
2022-09-25T09:07:39.926Z,93468.25
2022-09-25T09:10:37.818Z,93477.88
2022-09-25T09:13:22.649Z,93470.97
2022-09-25T09:16:01.492Z,93473.38
2022-09-25T09:18:30.991Z,93473.00
2022-09-25T09:21:04.156Z,93471.13
2022-09-25T09:23:36.634Z,93472.47
2022-09-25T09:26:04.616Z,93476.81
2022-09-25T09:28:58.470Z,93468.53
2022-09-25T09:32:03.474Z,93470.16
2022-09-25T09:35:07.127Z,93465.13
2022-09-25T09:37:58.409Z,93465.78
2022-09-25T09:40:49.444Z,93461.72
2022-09-25T09:43:31.699Z,93452.06
2022-09-25T09:46:14.164Z,93454.09
2022-09-25T09:49:10.630Z,93454.19
2022-09-25T09:52:17.816Z,93461.59
2022-09-25T09:54:55.921Z,93456.53
2022-09-25T09:57:26.566Z,93457.94
2022-09-25T10:00:05.057Z,93456.38
2022-09-25T10:03:00.930Z,93458.50
2022-09-25T10:05:36.694Z,93458.16
2022-09-25T10:08:03.865Z,93458.06
2022-09-25T10:10:42.966Z,93465.09
2022-09-25T10:13:19.206Z,93452.69
2022-09-25T10:16:04.860Z,93458.72
2022-09-25T10:18:40.850Z,93453.78
2022-09-25T10:21:16.370Z,93447.94
2022-09-25T10:23:54.102Z,93453.91
2022-09-25T10:26:25.254Z,93452.44
2022-09-25T10:28:52.342Z,93446.47
2022-09-25T10:31:20.982Z,93439.06
2022-09-25T10:34:03.833Z,93441.31
2022-09-25T10:36:33.951Z,93437.66
2022-09-25T10:39:18.062Z,93434.59
2022-09-25T10:41:47.601Z,93434.50
2022-09-25T10:44:33.247Z,93436.88
2022-09-25T10:47:36.598Z,93438.16
2022-09-25T10:50:15.919Z,93436.88
2022-09-25T10:52:50.151Z,93439.88
2022-09-25T10:55:35.089Z,93433.03
2022-09-25T10:58:13.315Z,93432.59
2022-09-25T11:00:54.536Z,93433.88
2022-09-25T11:03:39.159Z,93429.44
2022-09-25T11:06:09.212Z,93438.97
2022-09-25T11:08:40.131Z,93441.53
2022-09-25T11:11:09.341Z,93440.78
2022-09-25T11:13:54.225Z,93441.34
2022-09-25T11:16:21.657Z,93442.34
2022-09-25T11:19:29.106Z,93435.31
2022-09-25T11:21:59.855Z,93449.72
2022-09-25T11:24:40.520Z,93439.63
2022-09-25T11:27:12.449Z,93440.41
2022-09-25T11:29:38.987Z,93442.63
2022-09-25T11:32:19.854Z,93442.75
2022-09-25T11:35:04.546Z,93442.22
2022-09-25T11:38:09.848Z,93435.06
2022-09-25T11:41:14.778Z,93431.06
2022-09-25T11:44:09.539Z,93433.56
2022-09-25T11:47:01.749Z,93438.72
2022-09-25T11:49:34.463Z,93432.22
2022-09-25T11:52:05.213Z,93438.19
2022-09-25T11:55:06.063Z,93436.75
2022-09-25T11:57:58.766Z,93438.09
2022-09-25T12:00:46.815Z,93440.53
2022-09-25T12:03:47.438Z,93435.63
2022-09-25T12:06:14.368Z,93435.84
2022-09-25T12:09:10.146Z,93426.09
2022-09-25T12:11:48.696Z,93436.63
2022-09-25T12:14:34.506Z,93436.41
2022-09-25T12:17:34.930Z,93431.69
2022-09-25T12:20:32.246Z,93433.09
2022-09-25T12:23:18.189Z,93435.69
2022-09-25T12:26:06.658Z,93433.72
2022-09-25T12:28:57.306Z,93434.81
2022-09-25T12:31:45.592Z,93432.44
2022-09-25T12:34:38.970Z,93430.13
2022-09-25T12:37:32.205Z,93426.06
2022-09-25T12:40:03.548Z,93427.13
2022-09-25T12:42:51.533Z,93422.84
2022-09-25T12:45:31.148Z,93414.66
2022-09-25T12:48:20.375Z,93421.28
2022-09-25T12:51:11.716Z,93417.50
2022-09-25T12:53:54.841Z,93419.63
2022-09-25T12:56:27.669Z,93421.84
2022-09-25T12:59:19.218Z,93425.53
2022-09-25T13:02:04.117Z,93416.34
2022-09-25T13:04:53.594Z,93431.34
2022-09-25T13:07:44.061Z,93420.66
2022-09-25T13:10:39.974Z,93428.19
2022-09-25T13:13:13.450Z,93432.03
2022-09-25T13:15:42.450Z,93433.00
2022-09-25T13:18:26.968Z,93432.34
2022-09-25T13:20:58.315Z,93429.91
2022-09-25T13:23:37.023Z,93427.72
2022-09-25T13:26:13.306Z,93422.22
2022-09-25T13:28:57.297Z,93427.94
2022-09-25T13:31:33.183Z,93433.03
2022-09-25T13:34:15.305Z,93429.56
2022-09-25T13:36:55.189Z,93422.19
2022-09-25T13:39:43.589Z,93420.78
2022-09-25T13:42:15.857Z,93423.00
2022-09-25T13:44:42.570Z,93426.81
2022-09-25T13:47:24.324Z,93422.28
2022-09-25T13:50:04.594Z,93425.28
2022-09-25T13:53:12.644Z,93420.00
2022-09-25T13:55:55.231Z,93425.09
2022-09-25T13:58:26.392Z,93423.91
2022-09-25T14:00:57.557Z,93426.03
2022-09-25T14:03:51.217Z,93420.00
2022-09-25T14:06:25.922Z,93423.28
2022-09-25T14:08:55.969Z,93415.19
2022-09-25T14:11:27.985Z,93408.03
2022-09-25T14:13:56.771Z,93411.56
2022-09-25T14:16:33.475Z,93402.19
2022-09-25T14:19:02.914Z,93398.53
2022-09-25T14:21:31.399Z,93400.88
2022-09-25T14:24:13.105Z,93400.94
2022-09-25T14:26:45.520Z,93395.09
2022-09-25T14:29:23.709Z,93392.81
2022-09-25T14:31:58.221Z,93392.81
2022-09-25T14:34:42.517Z,93385.47
2022-09-25T14:37:39.976Z,93386.41
2022-09-25T14:40:40.332Z,93376.44
2022-09-25T14:46:18.569Z,93386.22
2022-09-25T14:48:58.415Z,93378.25
2022-09-25T14:51:33.877Z,93381.03
2022-09-25T14:54:06.130Z,93384.63
2022-09-25T14:56:35.546Z,93378.44
2022-09-25T14:59:10.370Z,93383.84
2022-09-25T15:01:48.116Z,93382.50
2022-09-25T15:04:26.507Z,93380.50
2022-09-25T15:07:07.196Z,93382.22
2022-09-25T15:09:47.758Z,93383.31
2022-09-25T15:12:25.547Z,93382.09
2022-09-25T15:15:12.033Z,93386.84
2022-09-25T15:17:50.932Z,93381.25
2022-09-25T15:20:20.861Z,93397.38
2022-09-25T15:22:58.519Z,93394.00
2022-09-25T15:25:31.533Z,93390.38
2022-09-25T15:27:59.307Z,93390.09
2022-09-25T15:30:28.181Z,93389.94
2022-09-25T15:33:00.571Z,93388.53
2022-09-25T15:35:29.114Z,93384.03
2022-09-25T15:38:28.446Z,93397.59
2022-09-25T15:40:56.281Z,93393.06
2022-09-25T15:43:23.006Z,93397.50
2022-09-25T15:46:08.064Z,93396.03
2022-09-25T15:48:40.507Z,93382.84
2022-09-25T15:51:30.413Z,93393.22
2022-09-25T15:54:18.004Z,93394.75
2022-09-25T15:56:47.988Z,93394.09
2022-09-25T16:00:06.778Z,93398.75
2022-09-25T16:02:57.414Z,93398.19
2022-09-25T16:05:32.820Z,93398.63
2022-09-25T16:08:32.302Z,93395.00
2022-09-25T16:11:21.642Z,93393.97
2022-09-25T16:13:51.774Z,93400.03
2022-09-25T16:16:29.995Z,93394.66
2022-09-25T16:19:21.673Z,93394.53
2022-09-25T16:21:48.983Z,93402.59
2022-09-25T16:24:25.124Z,93404.22
2022-09-25T16:26:56.426Z,93396.72
2022-09-25T16:29:29.115Z,93404.78
2022-09-25T16:32:03.774Z,93405.34
2022-09-25T16:34:34.521Z,93399.19
2022-09-25T16:37:03.522Z,93403.38
2022-09-25T16:39:36.714Z,93417.78
2022-09-25T16:42:26.793Z,93421.16
2022-09-25T16:45:23.697Z,93416.78
2022-09-25T16:47:51.249Z,93422.47
2022-09-25T16:50:20.290Z,93420.72
2022-09-25T16:52:48.127Z,93421.91
2022-09-25T16:55:28.717Z,93423.44
2022-09-25T16:57:56.706Z,93422.72
2022-09-25T17:00:26.018Z,93426.34
2022-09-25T17:02:53.651Z,93417.75
2022-09-25T17:05:26.754Z,93420.06
2022-09-25T17:07:56.138Z,93417.53
2022-09-25T17:10:26.189Z,93424.56
2022-09-25T17:12:55.760Z,93429.91
2022-09-25T17:15:31.026Z,93435.63
2022-09-25T17:17:59.543Z,93433.94
2022-09-25T17:20:27.167Z,93422.47
2022-09-25T17:22:54.779Z,93425.72
2022-09-25T17:25:40.259Z,93431.00
2022-09-25T17:28:09.360Z,93427.78
2022-09-25T17:30:36.617Z,93433.19
2022-09-25T17:33:06.592Z,93438.97
2022-09-25T17:35:42.121Z,93446.63
2022-09-25T17:38:08.946Z,93446.97
2022-09-25T17:40:35.764Z,93449.38
2022-09-25T17:43:02.501Z,93451.63
2022-09-25T17:45:35.563Z,93452.38
2022-09-25T17:48:03.152Z,93444.75
2022-09-25T17:50:31.451Z,93445.59
2022-09-25T17:52:59.008Z,93445.78
2022-09-25T17:55:25.794Z,93453.75
2022-09-25T17:57:52.572Z,93454.22
2022-09-25T18:00:19.204Z,93457.72
2022-09-25T18:02:46.433Z,93458.94
2022-09-25T18:05:18.331Z,93455.19
2022-09-25T18:07:45.049Z,93452.44
2022-09-25T18:10:13.071Z,93457.06
2022-09-25T18:12:39.881Z,93460.09
2022-09-25T18:15:07.279Z,93468.41
2022-09-25T18:17:33.887Z,93464.13
2022-09-25T18:20:19.126Z,93465.50
2022-09-25T18:22:45.825Z,93456.03
2022-09-25T18:25:13.012Z,93470.63
2022-09-25T18:27:41.761Z,93474.41
2022-09-25T18:30:15.135Z,93470.03
2022-09-25T18:32:42.040Z,93476.91
2022-09-25T18:35:09.489Z,93477.84
2022-09-25T18:37:36.188Z,93476.47
2022-09-25T18:40:03.945Z,93476.13
2022-09-25T18:42:30.597Z,93482.03
2022-09-25T18:44:57.366Z,93483.72
2022-09-25T18:47:24.200Z,93486.53
2022-09-25T18:49:51.010Z,93490.56
2022-09-25T18:52:17.674Z,93496.47
2022-09-25T18:54:44.505Z,93504.72
2022-09-25T18:57:12.491Z,93494.09
2022-09-25T18:59:39.469Z,93500.50
2022-09-25T19:02:07.289Z,93504.38
2022-09-25T19:04:35.099Z,93504.44
2022-09-25T19:07:01.761Z,93507.97
2022-09-25T19:09:28.519Z,93510.72
2022-09-25T19:11:55.418Z,93506.81
2022-09-25T19:14:23.970Z,93510.50
2022-09-25T19:16:53.386Z,93510.19
2022-09-25T19:19:20.049Z,93506.34
2022-09-25T19:21:46.669Z,93505.16
2022-09-25T19:24:13.285Z,93502.34
2022-09-25T19:26:42.629Z,93506.56
2022-09-25T19:29:09.379Z,93501.09
2022-09-25T19:31:36.758Z,93496.03
2022-09-25T19:34:03.577Z,93494.81
2022-09-25T19:36:32.429Z,93498.34
2022-09-25T19:39:00.355Z,93504.94
2022-09-25T19:41:29.802Z,93509.22
2022-09-25T19:44:00.737Z,93508.03
2022-09-25T19:46:28.388Z,93511.53
2022-09-25T19:48:55.589Z,93520.47
2022-09-25T19:51:23.989Z,93515.75
2022-09-25T19:53:51.622Z,93512.25
2022-09-25T19:56:19.329Z,93515.91
2022-09-25T19:58:50.876Z,93527.31
2022-09-25T20:01:26.077Z,93527.19
2022-09-25T20:03:55.488Z,93519.00
2022-09-25T20:06:23.002Z,93524.84
2022-09-25T20:08:49.879Z,93526.81
2022-09-25T20:11:20.085Z,93524.84
2022-09-25T20:13:48.450Z,93513.81
2022-09-25T20:16:17.889Z,93522.44
2022-09-25T20:18:49.376Z,93518.59
2022-09-25T20:21:17.584Z,93519.44
2022-09-25T20:23:44.405Z,93511.75
2022-09-25T20:26:18.447Z,93504.94
2022-09-25T20:28:45.648Z,93506.75
2022-09-25T20:31:14.812Z,93506.06
2022-09-25T20:33:42.367Z,93501.84
2022-09-25T20:36:12.022Z,93502.63
2022-09-25T20:38:39.026Z,93507.44
2022-09-25T20:41:08.758Z,93511.94
2022-09-25T20:43:35.462Z,93513.09
2022-09-25T20:46:05.199Z,93510.66
2022-09-25T20:48:33.669Z,93515.78
2022-09-25T20:51:00.268Z,93509.22
2022-09-25T20:53:26.942Z,93508.78
2022-09-25T20:55:53.622Z,93506.47
2022-09-25T20:58:20.701Z,93515.91
2022-09-25T21:00:49.005Z,93514.84
2022-09-25T21:03:15.646Z,93521.44
2022-09-25T21:05:46.519Z,93515.41
2022-09-25T21:08:13.111Z,93518.88
2022-09-25T21:10:40.431Z,93513.94
2022-09-25T21:13:07.060Z,93521.38
2022-09-25T21:15:33.675Z,93514.22
2022-09-25T21:18:00.506Z,93507.75
2022-09-25T21:20:27.764Z,93506.22
2022-09-25T21:22:54.834Z,93504.09
2022-09-25T21:25:21.634Z,93506.47
2022-09-25T21:27:48.261Z,93498.03
2022-09-25T21:30:15.031Z,93500.28
2022-09-25T21:32:41.668Z,93498.47
2022-09-25T21:35:08.749Z,93492.97
2022-09-25T21:37:35.612Z,93506.69
2022-09-25T21:40:05.323Z,93499.22
2022-09-25T21:42:32.244Z,93497.75
2022-09-25T21:45:00.986Z,93493.56
2022-09-25T21:47:28.249Z,93501.97
2022-09-25T21:49:56.332Z,93502.53
2022-09-25T21:52:26.106Z,93508.72
2022-09-25T21:54:54.469Z,93507.53
2022-09-25T21:57:22.012Z,93502.41
2022-09-25T21:59:48.622Z,93508.44
2022-09-25T22:02:15.304Z,93511.81
2022-09-25T22:04:42.116Z,93512.47
2022-09-25T22:07:08.846Z,93510.34
2022-09-25T22:09:35.469Z,93511.81
2022-09-25T22:12:02.153Z,93514.56
2022-09-25T22:14:28.784Z,93505.63
2022-09-25T22:16:55.507Z,93515.94
2022-09-25T22:19:23.636Z,93506.91
2022-09-25T22:21:51.978Z,93512.88
2022-09-25T22:24:19.212Z,93503.47
2022-09-25T22:26:47.829Z,93503.19
2022-09-25T22:29:16.530Z,93502.84
2022-09-25T22:31:44.114Z,93498.00
2022-09-25T22:34:25.718Z,93493.91
2022-09-25T22:36:58.678Z,93493.34
2022-09-25T22:39:27.244Z,93490.31
2022-09-25T22:41:55.031Z,93500.50
2022-09-25T22:44:22.598Z,93498.81
2022-09-25T22:46:49.565Z,93504.16
2022-09-25T22:49:16.272Z,93506.56
2022-09-25T22:51:43.216Z,93505.28
2022-09-25T22:54:13.072Z,93506.22
2022-09-25T22:56:40.265Z,93504.59
2022-09-25T22:59:10.784Z,93512.16
2022-09-25T23:01:47.941Z,93513.44
2022-09-25T23:04:20.512Z,93508.88
2022-09-25T23:06:48.955Z,93500.28
2022-09-25T23:09:21.449Z,93501.41
2022-09-25T23:11:48.544Z,93503.19
2022-09-25T23:14:19.614Z,93494.25
2022-09-25T23:16:48.476Z,93493.84
2022-09-25T23:19:16.080Z,93498.00
2022-09-25T23:21:43.445Z,93485.06
2022-09-25T23:24:15.783Z,93484.41
2022-09-25T23:26:43.578Z,93483.78
2022-09-25T23:29:12.576Z,93482.09
2022-09-25T23:31:39.364Z,93477.22
2022-09-25T23:34:05.985Z,93472.50
2022-09-25T23:36:32.642Z,93471.47
2022-09-25T23:39:00.673Z,93474.91
2022-09-25T23:41:33.024Z,93478.22
2022-09-25T23:44:01.569Z,93474.56
2022-09-25T23:46:31.387Z,93475.56
2022-09-25T23:48:59.033Z,93473.50
2022-09-25T23:51:27.214Z,93472.41
2022-09-25T23:53:56.390Z,93472.16
2022-09-25T23:56:25.483Z,93463.59
2022-09-25T23:58:52.292Z,93476.88
